Terminal Aerodrome Forecast
Issued by NWS Jackson, KY

Home | Current Version | Previous Version | Text Only | Print | Product List | Glossary On
Versions: 1 2 3 4 5 6 7 8 9 10 11 12 13 14 15 16 17 18 19 20
000
FTUS43 KJKL 081739
TAFLOZ
TAF
KLOZ 081739Z 0818/0918 26008KT 6SM -SHRASN BKN030
     FM082100 27008KT 3SM -SHSNRA BR BKN025
     FM090000 27008KT 3SM -SHSN BR BKN008
     FM090400 27007KT 6SM -SN BR OVC012=

USA.gov is the U.S. government's official web portal to all federal, state and local government web resources and services.